Time;durP1;ratioP1;P1;durP2;ratioP2;P2;SDS_P1;SDS_P2;PMS_P1;PMS_P2;Temp;Humidity;BMP_temperature;BMP_pressure;BME280_temperature;BME280_humidity;BME280_pressure;Samples;Min_cycle;Max_cycle;Signal;HPM_P1;HPM_P2
2022/04/19 00:00:06;;;;;;;3.28;2.47;;;;;;;11.23;44.66;94641.25;5029330;28;20193;-63
2022/04/19 00:02:35;;;;;;;3.08;2.72;;;;;;;11.10;44.77;94647.03;5030038;28;20181;-56
2022/04/19 00:05:03;;;;;;;3.03;2.72;;;;;;;11.10;44.62;94636.56;5029663;28;20204;-53
2022/04/19 00:07:30;;;;;;;2.30;2.10;;;;;;;10.82;45.41;94639.72;5029613;28;20617;-56
2022/04/19 00:09:57;;;;;;;2.90;2.17;;;;;;;10.65;45.70;94631.34;5029203;28;20189;-59
2022/04/19 00:12:24;;;;;;;2.10;1.73;;;;;;;10.81;45.26;94630.28;5029863;28;20219;-57
2022/04/19 00:14:51;;;;;;;2.00;1.80;;;;;;;10.62;45.35;94623.22;5029162;28;20217;-58
2022/04/19 00:17:19;;;;;;;2.13;1.92;;;;;;;10.75;45.33;94628.72;5029226;28;20233;-62
2022/04/19 00:19:46;;;;;;;1.70;1.60;;;;;;;10.79;45.25;94627.13;5029103;28;20201;-61
2022/04/19 00:22:13;;;;;;;1.70;1.50;;;;;;;10.85;45.46;94622.69;5029405;28;20201;-63
2022/04/19 00:24:40;;;;;;;1.90;1.70;;;;;;;11.01;44.96;94609.31;5029237;28;20645;-61
2022/04/19 00:27:07;;;;;;;2.55;2.05;;;;;;;11.05;44.63;94614.81;5029274;28;20583;-55
2022/04/19 00:29:34;;;;;;;2.00;1.80;;;;;;;11.15;44.43;94618.19;5029027;28;20196;-64
2022/04/19 00:32:01;;;;;;;2.05;1.80;;;;;;;11.18;44.89;94612.41;5029034;28;20185;-56
2022/04/19 00:34:28;;;;;;;2.72;2.05;;;;;;;10.91;44.96;94606.69;5028768;28;20235;-61
2022/04/19 00:36:55;;;;;;;2.35;2.15;;;;;;;11.08;45.09;94606.41;5029467;28;20199;-61
2022/04/19 00:39:22;;;;;;;2.33;2.00;;;;;;;10.91;45.08;94604.06;5029249;28;20200;-55
2022/04/19 00:41:49;;;;;;;2.30;2.10;;;;;;;11.02;45.22;94605.63;5027529;28;20203;-58
2022/04/19 00:44:16;;;;;;;2.40;2.20;;;;;;;11.10;44.77;94599.84;5029166;28;20248;-63
2022/04/19 00:46:43;;;;;;;2.35;2.15;;;;;;;11.11;44.66;94598.78;5028789;28;20641;-65
2022/04/19 00:49:10;;;;;;;2.05;1.80;;;;;;;11.09;44.38;94595.63;5029180;28;20193;-58
2022/04/19 00:51:38;;;;;;;2.45;1.80;;;;;;;10.95;44.74;94602.47;5027176;28;20263;-59
2022/04/19 00:54:07;;;;;;;2.58;1.98;;;;;;;10.85;44.85;94592.03;5028059;28;20309;-56
2022/04/19 00:56:34;;;;;;;2.13;1.83;;;;;;;10.49;45.81;94597.53;5027280;28;20221;-61
2022/04/19 00:59:02;;;;;;;1.92;1.70;;;;;;;10.91;44.78;94590.19;5027782;28;20619;-62
2022/04/19 01:01:30;;;;;;;2.15;2.00;;;;;;;10.81;45.13;94590.97;5027215;28;20217;-58
2022/04/19 01:03:58;;;;;;;2.05;1.88;;;;;;;10.97;44.70;94589.91;5027776;28;20256;-61
2022/04/19 01:06:25;;;;;;;2.97;2.33;;;;;;;10.84;45.43;94600.91;5026924;28;20209;-59
2022/04/19 01:08:54;;;;;;;2.42;1.98;;;;;;;10.81;45.21;94601.47;5027899;28;20288;-62
2022/04/19 01:14:10;;;;;;;2.20;2.00;;;;;;;11.01;45.23;94584.91;5027822;28;20253;-64
2022/04/19 01:16:40;;;;;;;3.15;2.80;;;;;;;10.78;45.99;94586.28;5026771;28;20720;-62
2022/04/19 01:19:15;;;;;;;3.03;2.72;;;;;;;10.90;45.46;94585.97;5027396;28;20212;-62
2022/04/19 01:21:50;;;;;;;2.85;2.55;;;;;;;10.69;45.19;94587.81;5028885;28;20274;-56
2022/04/19 01:24:24;;;;;;;2.85;2.53;;;;;;;10.97;45.04;94587.28;5027848;28;20205;-58
2022/04/19 01:26:55;;;;;;;3.03;2.72;;;;;;;10.93;45.28;94588.84;5029521;28;20236;-57
2022/04/19 01:29:24;;;;;;;2.85;2.63;;;;;;;10.74;45.54;94590.47;5031039;28;20575;-60
2022/04/19 01:31:52;;;;;;;3.05;2.75;;;;;;;10.89;45.44;94598.28;5031796;28;20197;-64
2022/04/19 01:34:21;;;;;;;3.13;2.80;;;;;;;11.02;45.32;94587.25;5033274;28;20567;-59
2022/04/19 01:36:52;;;;;;;3.22;2.85;;;;;;;10.88;44.89;94578.38;5031514;28;20228;-63
2022/04/19 01:40:16;;;;;;;3.30;3.00;;;;;;;10.82;45.46;94591.78;5031229;28;20216;-61
2022/04/19 01:42:09;;;;;;;2.83;2.60;;;;;;;10.67;45.51;94584.69;5031056;28;20206;-61
2022/04/19 01:44:41;;;;;;;3.03;2.50;;;;;;;10.69;45.49;94573.94;5030709;28;20628;-56
2022/04/19 01:47:10;;;;;;;4.13;2.58;;;;;;;10.70;45.37;94583.38;5031257;28;20244;-61
2022/04/19 01:49:43;;;;;;;3.47;2.63;;;;;;;10.62;45.83;94582.06;5030456;28;20212;-54
2022/04/19 01:52:10;;;;;;;2.63;2.35;;;;;;;10.70;44.76;94589.41;5032642;28;20552;-56
2022/04/19 01:54:38;;;;;;;3.37;2.77;;;;;;;10.70;45.29;94584.16;5030626;28;20205;-56
2022/04/19 01:57:06;;;;;;;3.47;2.80;;;;;;;10.73;44.87;94588.88;5031045;28;20439;-61
2022/04/19 01:59:45;;;;;;;3.15;2.60;;;;;;;10.75;45.46;94586.78;5030449;28;20197;-57
2022/04/19 02:02:15;;;;;;;2.58;2.35;;;;;;;10.40;45.97;94586.78;5031099;28;20211;-62
2022/04/19 02:04:42;;;;;;;2.60;2.40;;;;;;;10.38;45.84;94586.28;5030575;28;20205;-59
2022/04/19 02:07:09;;;;;;;2.50;2.20;;;;;;;10.34;46.10;94579.19;5032106;28;20249;-57
2022/04/19 02:09:37;;;;;;;5.00;2.00;;;;;;;10.22;46.19;94584.66;5029967;28;20227;-59
2022/04/19 02:12:08;;;;;;;2.97;2.60;;;;;;;10.54;46.39;94585.22;5030653;28;20452;-59
2022/04/19 02:14:50;;;;;;;2.70;2.10;;;;;;;10.29;46.54;94585.22;5030322;28;20680;-61
2022/04/19 02:17:20;;;;;;;2.35;2.10;;;;;;;10.49;45.98;94579.97;5030260;28;20681;-63
2022/04/19 02:19:47;;;;;;;2.30;1.95;;;;;;;10.35;46.11;94578.91;5030369;28;20201;-59
2022/04/19 02:22:14;;;;;;;2.67;2.10;;;;;;;10.46;46.33;94582.31;5030649;28;20205;-61
2022/04/19 02:24:41;;;;;;;2.20;1.90;;;;;;;10.40;46.03;94578.91;5030287;28;20239;-56
2022/04/19 02:27:09;;;;;;;2.13;1.90;;;;;;;10.61;45.62;94575.25;5030805;28;20232;-61
2022/04/19 02:29:36;;;;;;;3.83;1.98;;;;;;;10.49;45.98;94585.19;5030823;28;20623;-58
2022/04/19 02:32:04;;;;;;;2.03;1.85;;;;;;;10.42;46.42;94579.44;5032203;28;20243;-60
2022/04/19 02:34:31;;;;;;;2.30;2.10;;;;;;;10.35;46.14;94581.53;5030073;28;20189;-62
2022/04/19 02:36:58;;;;;;;2.25;2.05;;;;;;;10.26;46.49;94583.09;5029630;28;20327;-61
2022/04/19 02:39:28;;;;;;;2.53;2.33;;;;;;;10.32;46.36;94586.50;5030021;28;20256;-56
2022/04/19 02:41:55;;;;;;;2.67;2.42;;;;;;;10.31;46.19;94588.34;5031115;28;20189;-57
2022/04/19 02:44:23;;;;;;;2.50;2.30;;;;;;;10.20;46.68;94584.13;5030167;28;20209;-57
2022/04/19 02:47:10;;;;;;;3.10;2.72;;;;;;;10.39;46.35;94587.84;5031844;28;20559;-63
2022/04/19 02:49:40;;;;;;;2.60;2.40;;;;;;;10.43;45.94;94583.66;5031359;28;20204;-60
2022/04/19 02:52:08;;;;;;;2.67;2.47;;;;;;;10.23;46.17;94578.41;5030373;28;20320;-60
2022/04/19 02:54:37;;;;;;;2.70;2.50;;;;;;;10.60;45.85;94584.16;5029865;28;20277;-57
2022/04/19 02:57:08;;;;;;;3.47;2.60;;;;;;;10.42;46.15;94587.31;5029940;28;20318;-59
2022/04/19 02:59:36;;;;;;;3.60;2.90;;;;;;;10.30;46.29;94584.16;5029694;28;20205;-56
2022/04/19 03:02:05;;;;;;;3.13;2.80;;;;;;;10.59;45.93;94587.84;5031645;28;20209;-62
2022/04/19 03:04:32;;;;;;;3.80;2.92;;;;;;;10.46;45.70;94592.78;5029677;28;20284;-59
2022/04/19 03:07:01;;;;;;;3.28;2.88;;;;;;;10.46;45.98;94590.19;5030042;28;20648;-61
2022/04/19 03:09:28;;;;;;;3.50;3.20;;;;;;;10.21;46.34;94604.06;5029573;28;20229;-54
2022/04/19 03:11:55;;;;;;;3.67;3.33;;;;;;;10.15;47.13;94605.06;5029859;28;20597;-59
2022/04/19 03:14:25;;;;;;;6.28;3.45;;;;;;;10.24;46.31;94600.91;5029624;28;20211;-59
2022/04/19 03:16:52;;;;;;;3.40;3.10;;;;;;;10.30;46.63;94614.78;5029374;28;20237;-55
2022/04/19 03:19:19;;;;;;;5.00;3.30;;;;;;;10.31;46.85;94613.75;5030075;28;20448;-51
2022/04/19 03:21:46;;;;;;;4.50;3.40;;;;;;;10.26;46.36;94608.50;5029192;28;20209;-62
2022/04/19 03:29:45;;;;;;;3.55;3.25;;;;;;;10.42;46.19;94613.50;5028970;28;20201;-59
2022/04/19 03:32:15;;;;;;;5.75;3.83;;;;;;;10.58;45.80;94607.25;5029630;28;20204;-59
2022/04/19 03:34:43;;;;;;;4.68;4.18;;;;;;;10.58;46.10;94607.25;5028851;28;20197;-59
2022/04/19 03:37:10;;;;;;;6.95;4.18;;;;;;;10.54;45.86;94615.88;5028519;28;20231;-58
2022/04/19 03:39:37;;;;;;;4.60;3.70;;;;;;;10.46;46.29;94613.75;5028892;28;20216;-59
2022/04/19 03:42:08;;;;;;;4.78;4.32;;;;;;;10.41;46.18;94617.16;5028345;28;20248;-58
2022/04/19 03:44:35;;;;;;;5.88;4.35;;;;;;;10.27;46.68;94616.13;5028588;28;20308;-59
2022/04/19 03:47:09;;;;;;;5.63;4.50;;;;;;;10.24;47.06;94627.09;5030063;28;20193;-57
2022/04/19 03:49:39;;;;;;;4.85;4.15;;;;;;;10.33;46.42;94624.75;5029647;28;20201;-57
2022/04/19 03:52:07;;;;;;;6.32;4.70;;;;;;;10.40;46.84;94626.06;5027623;28;20207;-55
2022/04/19 03:54:35;;;;;;;6.25;5.00;;;;;;;10.49;46.70;94623.72;5036993;28;20224;-58
2022/04/19 03:57:07;;;;;;;6.78;5.15;;;;;;;10.54;47.75;94635.00;5044013;28;21023;-63
2022/04/19 03:59:38;;;;;;;5.72;4.85;;;;;;;10.64;46.69;94624.50;5041305;28;20274;-60
2022/04/19 04:02:06;;;;;;;6.50;5.72;;;;;;;10.49;47.27;94637.59;5040574;28;20201;-59
2022/04/19 04:04:36;;;;;;;6.88;5.43;;;;;;;10.59;46.82;94640.22;5032877;28;20193;-55
2022/04/19 04:07:05;;;;;;;5.55;4.68;;;;;;;10.30;47.13;94647.00;5039466;28;20197;-60
2022/04/19 04:09:37;;;;;;;5.53;4.90;;;;;;;10.52;47.01;94650.19;5025116;28;20700;-63
2022/04/19 04:12:14;;;;;;;5.75;4.63;;;;;;;10.41;46.96;94643.38;5035176;28;20188;-58
2022/04/19 04:14:43;;;;;;;4.68;4.10;;;;;;;10.49;46.80;94639.44;5038649;28;20709;-59
2022/04/19 04:17:13;;;;;;;5.25;4.43;;;;;;;10.06;47.35;94643.25;5049459;28;20246;-62
2022/04/19 04:19:40;;;;;;;7.25;4.65;;;;;;;10.32;47.29;94655.41;5048072;28;20196;-60
2022/04/19 04:22:10;;;;;;;6.25;5.43;;;;;;;10.48;47.66;94654.38;5047901;28;20200;-54
2022/04/19 04:24:37;;;;;;;11.40;10.20;;;;;;;10.43;46.03;94651.75;5034019;28;20213;-64
2022/04/19 04:27:04;;;;;;;13.15;11.75;;;;;;;10.28;47.18;94654.34;5028055;28;20204;-54
2022/04/19 04:29:32;;;;;;;9.52;8.48;;;;;;;10.41;47.75;94653.84;5027727;28;20213;-57
2022/04/19 04:31:59;;;;;;;11.63;8.93;;;;;;;10.52;47.31;94650.19;5028079;28;20648;-58
2022/04/19 04:34:26;;;;;;;12.68;10.75;;;;;;;10.25;48.08;94656.69;5028074;28;20680;-57
2022/04/19 04:36:54;;;;;;;11.95;10.60;;;;;;;10.39;47.50;94661.16;5028984;28;20228;-54
2022/04/19 04:39:22;;;;;;;11.88;9.70;;;;;;;10.44;47.61;94658.53;5027216;28;20311;-55
2022/04/19 04:42:08;;;;;;;10.07;8.88;;;;;;;10.45;47.53;94662.75;5029189;28;20318;-64
2022/04/19 04:44:35;;;;;;;9.52;8.45;;;;;;;10.66;46.71;94659.09;5027613;28;20201;-58
2022/04/19 04:49:50;;;;;;;11.50;9.95;;;;;;;10.62;47.02;94663.28;5027401;28;20251;-62
2022/04/19 04:52:19;;;;;;;46.72;34.50;;;;;;;10.87;46.48;94659.91;5027657;28;20205;-65
2022/04/19 04:54:48;;;;;;;97.25;71.30;;;;;;;10.32;48.42;94665.06;5027398;28;20201;-60
2022/04/19 04:57:21;;;;;;;13.48;11.60;;;;;;;10.40;47.69;94661.97;5027535;28;20754;-63
2022/04/19 04:59:49;;;;;;;13.70;11.25;;;;;;;10.78;47.10;94664.88;5027048;28;21053;-62
2022/04/19 05:02:18;;;;;;;18.20;15.02;;;;;;;10.74;47.58;94658.59;5031092;28;20208;-64
2022/04/19 05:04:45;;;;;;;18.20;15.40;;;;;;;10.94;46.96;94663.84;5031635;28;20720;-63
2022/04/19 05:07:15;;;;;;;18.08;15.52;;;;;;;11.20;45.92;94662.75;5031642;28;20255;-58
2022/04/19 05:09:52;;;;;;;14.65;12.77;;;;;;;11.07;46.78;94671.19;5031541;28;20599;-60
2022/04/19 05:12:20;;;;;;;14.43;12.63;;;;;;;11.21;46.31;94663.53;5031861;28;20197;-60
2022/04/19 05:14:47;;;;;;;14.27;12.70;;;;;;;11.23;47.20;94667.50;5031703;28;20221;-56
2022/04/19 05:17:14;;;;;;;15.73;13.30;;;;;;;11.34;46.12;94657.75;5032501;28;20320;-62
2022/04/19 05:19:42;;;;;;;18.05;14.50;;;;;;;11.45;46.05;94667.19;5030910;28;20208;-58
2022/04/19 05:22:11;;;;;;;18.63;14.55;;;;;;;11.33;46.33;94663.28;5031428;28;20204;-60
2022/04/19 05:24:38;;;;;;;18.42;15.13;;;;;;;11.51;46.31;94671.38;5030992;28;20594;-54
2022/04/19 05:27:05;;;;;;;24.83;16.88;;;;;;;11.42;47.58;94659.06;5031493;28;20217;-68
2022/04/19 05:29:35;;;;;;;23.30;17.70;;;;;;;11.69;46.42;94675.28;5031448;28;20259;-65
2022/04/19 05:32:02;;;;;;;24.58;19.50;;;;;;;11.81;46.79;94673.94;5032969;28;20281;-56
2022/04/19 05:34:29;;;;;;;24.02;18.88;;;;;;;11.56;47.88;94670.56;5030803;28;20292;-62
2022/04/19 05:36:58;;;;;;;21.48;16.58;;;;;;;11.62;46.76;94672.13;5030532;28;20259;-64
2022/04/19 05:39:25;;;;;;;19.70;14.68;;;;;;;11.82;45.87;94665.03;5031288;28;20755;-57
2022/04/19 05:41:52;;;;;;;15.88;12.95;;;;;;;11.79;45.84;94670.00;5031089;28;20205;-63
2022/04/19 05:44:21;;;;;;;16.40;13.32;;;;;;;11.72;45.08;94675.53;5031485;28;20209;-59
2022/04/19 05:46:50;;;;;;;14.05;12.13;;;;;;;11.72;45.52;94674.75;5030679;28;20643;-53
2022/04/19 05:49:18;;;;;;;13.25;11.77;;;;;;;11.50;45.61;94676.88;5032332;28;20197;-64
2022/04/19 05:51:49;;;;;;;11.20;9.15;;;;;;;11.05;46.29;94691.63;5030653;28;20680;-63
2022/04/19 05:54:16;;;;;;;10.30;8.02;;;;;;;10.95;47.20;94691.63;5031497;28;20216;-54
2022/04/19 05:56:43;;;;;;;7.45;6.05;;;;;;;10.87;47.26;94686.13;5030792;28;20221;-61
2022/04/19 05:59:10;;;;;;;7.63;6.38;;;;;;;10.80;47.07;94688.97;5031046;28;20201;-59
2022/04/19 06:07:09;;;;;;;8.80;7.38;;;;;;;10.88;46.59;94696.34;5030518;28;20211;-58
2022/04/19 06:09:36;;;;;;;9.73;7.40;;;;;;;10.86;46.34;94698.44;5030232;28;20197;-59
2022/04/19 06:12:04;;;;;;;10.40;8.25;;;;;;;11.05;46.40;94690.84;5031580;28;20182;-63
2022/04/19 06:14:36;;;;;;;9.80;8.40;;;;;;;11.31;46.24;94699.47;5030397;28;20253;-62
2022/04/19 06:17:04;;;;;;;11.63;9.30;;;;;;;11.20;45.91;94693.47;5029728;28;20340;-66
2022/04/19 06:19:34;;;;;;;12.35;9.05;;;;;;;10.76;46.75;94698.44;5030674;28;20664;-63
2022/04/19 06:22:02;;;;;;;12.90;10.55;;;;;;;10.50;46.54;94702.06;5030533;28;20223;-61
2022/04/19 06:24:29;;;;;;;13.85;11.50;;;;;;;10.71;45.63;94695.78;5029966;28;20193;-61
2022/04/19 06:26:56;;;;;;;13.80;11.60;;;;;;;10.59;46.07;94708.34;5030361;28;20691;-60
2022/04/19 06:29:23;;;;;;;18.40;12.30;;;;;;;10.64;46.50;94710.97;5030508;28;20239;-59
2022/04/19 06:31:56;;;;;;;15.40;12.02;;;;;;;10.79;46.59;94702.34;5030382;28;20209;-63
2022/04/19 06:34:30;;;;;;;15.38;12.73;;;;;;;10.94;46.46;94705.78;5030213;28;20729;-57
2022/04/19 06:37:05;;;;;;;15.73;12.55;;;;;;;10.92;46.59;94707.88;5030141;28;20290;-62
2022/04/19 06:39:35;;;;;;;13.65;11.38;;;;;;;11.21;45.72;94706.31;5030072;28;20224;-62
2022/04/19 06:42:02;;;;;;;12.35;10.30;;;;;;;10.91;45.85;94713.38;5030525;28;20193;-65
2022/04/19 06:44:49;;;;;;;11.23;8.80;;;;;;;10.67;46.60;94709.69;5030655;28;20204;-59
2022/04/19 06:47:24;;;;;;;12.75;9.60;;;;;;;10.81;46.74;94714.16;5029908;28;20248;-67
2022/04/19 06:49:57;;;;;;;10.90;9.13;;;;;;;10.97;46.84;94718.34;5029728;28;20279;-65
2022/04/19 06:52:25;;;;;;;14.73;10.45;;;;;;;10.89;47.56;94703.13;5030242;28;20198;-57
2022/04/19 06:54:55;;;;;;;13.10;10.32;;;;;;;11.25;45.92;94717.06;5029723;28;20205;-59
2022/04/19 06:57:22;;;;;;;13.40;10.82;;;;;;;11.30;46.50;94718.88;5029533;28;20252;-59
2022/04/19 06:59:48;;;;;;;16.55;11.77;;;;;;;11.46;46.85;94717.81;5029581;28;20201;-65
2022/04/19 07:02:16;;;;;;;14.40;10.98;;;;;;;11.20;47.55;94698.69;5029755;28;20201;-56
2022/04/19 07:05:18;;;;;;;13.68;10.25;;;;;;;11.45;47.11;94721.47;4988961;28;20250;-60
2022/04/19 07:07:48;;;;;;;10.88;9.52;;;;;;;11.53;47.03;94718.34;5018188;28;20201;-62
2022/04/19 07:10:15;;;;;;;10.68;9.57;;;;;;;11.54;47.28;94704.16;5030629;28;20204;-65
2022/04/19 07:12:50;;;;;;;9.75;7.72;;;;;;;11.54;46.84;94719.91;5029437;28;20314;-64
2022/04/19 07:15:17;;;;;;;6.95;6.22;;;;;;;11.16;48.44;94729.91;5028687;28;20208;-59
2022/04/19 07:17:46;;;;;;;4.32;3.92;;;;;;;11.16;47.28;94726.50;5028639;28;20710;-57
2022/04/19 07:28:35;;;;;;;4.55;3.72;;;;;;;11.12;46.47;94722.81;5012654;28;20233;-62
2022/04/19 07:31:04;;;;;;;5.28;3.58;;;;;;;11.16;46.90;94735.16;5029051;28;20205;-58
2022/04/19 07:33:38;;;;;;;4.75;3.53;;;;;;;11.45;45.99;94730.16;5029331;28;20201;-58
2022/04/19 07:36:07;;;;;;;4.57;3.72;;;;;;;11.29;47.78;94733.03;5028620;28;20212;-56
2022/04/19 07:38:34;;;;;;;5.32;3.65;;;;;;;11.24;47.37;94736.44;5028890;28;20320;-58
2022/04/19 07:41:04;;;;;;;5.72;4.00;;;;;;;11.58;47.55;94727.00;5029872;28;20209;-64
2022/04/19 07:43:33;;;;;;;5.97;4.18;;;;;;;11.65;47.63;94729.34;5029016;28;20219;-59
2022/04/19 07:46:02;;;;;;;3.67;2.72;;;;;;;11.24;46.07;94731.19;5029757;28;20212;-61
2022/04/19 07:48:29;;;;;;;6.57;3.90;;;;;;;11.46;46.93;94733.56;5028667;28;20245;-62
2022/04/19 07:50:56;;;;;;;3.85;3.50;;;;;;;12.03;45.97;94723.47;5029635;28;20223;-62
2022/04/19 07:53:23;;;;;;;5.25;4.15;;;;;;;11.75;47.51;94737.22;5028534;28;20201;-56
2022/04/19 07:55:57;;;;;;;143.23;97.03;;;;;;;11.85;47.44;94731.94;5030133;28;20228;-63
2022/04/19 07:58:25;;;;;;;14.63;10.73;;;;;;;11.80;45.98;94734.59;5028247;28;20255;-55
2022/04/19 08:00:52;;;;;;;4.70;3.70;;;;;;;12.05;45.35;94729.25;5028858;28;20442;-60
2022/04/19 08:03:19;;;;;;;5.00;4.20;;;;;;;12.28;45.21;94733.88;5028750;28;20197;-58
2022/04/19 08:05:46;;;;;;;5.05;3.63;;;;;;;12.09;43.31;94731.09;5029784;28;20494;-56
2022/04/19 08:08:14;;;;;;;5.00;4.50;;;;;;;12.36;45.50;94730.69;5028793;28;20240;-62
2022/04/19 08:10:41;;;;;;;7.10;5.03;;;;;;;12.95;44.38;94728.81;5028068;28;20193;-66
2022/04/19 08:13:09;;;;;;;4.57;4.10;;;;;;;12.65;44.37;94712.41;5028229;28;20475;-60
2022/04/19 08:15:36;;;;;;;6.45;4.78;;;;;;;12.46;43.69;94733.31;5029273;28;20208;-60
2022/04/19 08:18:13;;;;;;;6.67;4.63;;;;;;;12.36;43.16;94732.53;5027656;28;20241;-58
2022/04/19 08:20:44;;;;;;;7.00;5.00;;;;;;;11.13;44.17;94735.66;5028041;28;20435;-56
2022/04/19 08:23:12;;;;;;;6.68;5.13;;;;;;;11.93;43.17;94739.28;5028493;28;20212;-58
2022/04/19 08:25:40;;;;;;;5.88;5.20;;;;;;;11.89;42.71;94738.22;5027865;28;20205;-60
2022/04/19 08:28:07;;;;;;;6.55;5.13;;;;;;;11.96;42.27;94738.72;5027789;28;20209;-60
2022/04/19 08:30:35;;;;;;;6.47;5.00;;;;;;;11.54;42.55;94730.38;5027805;28;20201;-57
2022/04/19 08:33:04;;;;;;;4.60;3.95;;;;;;;10.83;43.29;94733.03;5028129;28;20229;-52
2022/04/19 08:35:31;;;;;;;4.97;3.95;;;;;;;9.98;43.96;94724.91;5027871;28;20580;-58
2022/04/19 08:37:58;;;;;;;7.38;3.92;;;;;;;11.40;42.73;94724.13;5027770;28;20319;-59
2022/04/19 08:40:26;;;;;;;5.15;4.43;;;;;;;12.50;41.97;94718.53;5027569;28;20688;-62
2022/04/19 08:42:57;;;;;;;5.75;4.95;;;;;;;11.77;41.76;94724.63;5027953;28;20262;-57
2022/04/19 08:45:26;;;;;;;6.68;4.53;;;;;;;12.78;42.73;94711.81;5029202;28;20635;-55
2022/04/19 08:47:53;;;;;;;6.05;4.43;;;;;;;12.74;40.64;94714.19;5029705;28;20573;-58
2022/04/19 08:50:21;;;;;;;5.40;4.30;;;;;;;13.15;41.40;94707.66;5029003;28;20209;-64
2022/04/19 08:57:29;;;;;;;5.90;4.63;;;;;;;12.97;39.87;94713.50;5029359;28;20440;-56
2022/04/19 08:58:21;;;;;;;5.67;5.00;;;;;;;12.58;41.02;94702.22;5028935;28;20531;-60
2022/04/19 09:00:48;;;;;;;5.50;5.00;;;;;;;13.19;40.93;94711.28;5029037;28;20427;-60
2022/04/19 09:03:15;;;;;;;6.03;4.72;;;;;;;13.12;39.39;94705.53;5029584;28;20451;-64
2022/04/19 09:05:53;;;;;;;4.67;3.87;;;;;;;13.13;38.90;94711.59;5028873;28;20668;-57
2022/04/19 09:08:20;;;;;;;6.93;4.53;;;;;;;12.41;40.26;94699.13;5028851;28;20954;-61
2022/04/19 09:10:50;;;;;;;5.47;4.70;;;;;;;13.73;39.26;94684.72;5029064;28;20490;-62
2022/04/19 09:13:21;;;;;;;6.13;4.53;;;;;;;12.95;36.93;94675.41;5029385;28;20486;-61
2022/04/19 09:15:49;;;;;;;3.67;3.17;;;;;;;11.66;38.66;94697.59;5029119;28;20506;-63
2022/04/19 09:18:24;;;;;;;8.13;4.75;;;;;;;11.57;38.95;94706.25;5029065;28;20246;-59
2022/04/19 09:20:52;;;;;;;6.72;4.35;;;;;;;12.44;38.09;94693.38;5028891;28;20278;-62
2022/04/19 09:23:21;;;;;;;7.27;5.60;;;;;;;13.16;37.27;94697.88;5029263;28;20193;-61
2022/04/19 09:26:03;;;;;;;5.80;5.20;;;;;;;13.39;37.23;94693.75;5028487;28;20448;-60
2022/04/19 09:28:31;;;;;;;7.27;5.90;;;;;;;13.41;39.09;94691.63;5028684;28;20440;-57
2022/04/19 09:31:00;;;;;;;6.80;5.30;;;;;;;12.86;37.41;94696.25;5028726;28;20443;-56
2022/04/19 09:33:28;;;;;;;9.10;5.25;;;;;;;12.29;38.88;94693.44;5029170;28;20454;-60
2022/04/19 09:35:57;;;;;;;7.70;5.07;;;;;;;12.28;39.05;94694.47;5029013;28;20235;-54
2022/04/19 09:38:38;;;;;;;7.77;5.43;;;;;;;12.57;37.99;94692.75;5028472;28;20296;-62
2022/04/19 09:41:07;;;;;;;5.83;5.23;;;;;;;12.69;37.58;94674.00;5028656;28;20497;-57
2022/04/19 09:44:08;;;;;;;5.40;4.70;;;;;;;11.76;38.09;94697.59;5029005;28;20447;-54
2022/04/19 09:46:36;;;;;;;6.20;5.40;;;;;;;13.46;36.67;94689.75;5028321;28;20456;-57
2022/04/19 09:49:04;;;;;;;7.33;5.00;;;;;;;13.96;34.70;94686.56;5032324;28;20432;-53
2022/04/19 09:51:36;;;;;;;5.60;4.60;;;;;;;14.30;34.75;94683.84;5032241;28;20454;-51
2022/04/19 09:54:03;;;;;;;32.70;14.10;;;;;;;12.86;35.83;94691.00;5032541;28;20447;-59
2022/04/19 09:56:35;;;;;;;17.07;8.07;;;;;;;13.36;34.00;94681.16;5031853;28;21071;-50
2022/04/19 09:59:20;;;;;;;9.07;5.43;;;;;;;14.50;35.02;94673.03;5031863;28;20888;-59
2022/04/19 10:10:07;;;;;;;6.70;5.40;;;;;;;16.54;30.95;94660.22;5031284;28;20435;-58
2022/04/19 10:12:34;;;;;;;6.87;5.60;;;;;;;15.89;31.89;94663.09;5032239;28;20428;-62
2022/04/19 10:15:04;;;;;;;10.67;5.80;;;;;;;16.88;32.57;94660.50;5031254;28;20823;-56
2022/04/19 10:17:32;;;;;;;7.27;5.37;;;;;;;17.01;31.39;94657.00;5031221;28;20495;-58
2022/04/19 10:20:00;;;;;;;6.57;5.33;;;;;;;16.65;30.59;94648.34;5031407;28;20505;-59
2022/04/19 10:22:27;;;;;;;8.23;5.70;;;;;;;17.18;28.69;94647.34;5031911;28;20447;-55
2022/04/19 10:24:57;;;;;;;6.07;5.47;;;;;;;17.23;29.23;94628.69;5031031;28;20982;-60
2022/04/19 10:27:31;;;;;;;6.30;5.23;;;;;;;16.32;27.24;94637.13;5032090;28;20428;-57
2022/04/19 10:29:58;;;;;;;5.83;5.23;;;;;;;15.75;30.91;94632.44;5031031;28;20590;-58
2022/04/19 10:32:33;;;;;;;6.83;5.80;;;;;;;16.15;31.28;94637.72;5031363;28;20635;-64
2022/04/19 10:35:03;;;;;;;6.00;5.23;;;;;;;16.29;32.22;94639.56;5031151;28;20981;-62
2022/04/19 10:37:31;;;;;;;8.47;5.90;;;;;;;16.02;32.28;94645.69;5031622;28;20475;-57
2022/04/19 10:39:58;;;;;;;6.67;5.50;;;;;;;15.97;32.57;94637.84;5030602;28;20862;-59
2022/04/19 10:42:32;;;;;;;7.77;6.37;;;;;;;15.74;33.33;94636.19;5031476;28;20452;-61
2022/04/19 10:45:14;;;;;;;6.93;6.10;;;;;;;15.60;32.73;94638.03;5030727;28;21116;-62
2022/04/19 10:47:53;;;;;;;10.53;6.43;;;;;;;16.07;32.94;94646.38;5031726;28;20440;-57
2022/04/19 10:50:34;;;;;;;7.60;6.17;;;;;;;16.84;33.57;94630.44;5031212;28;20444;-59
2022/04/19 10:53:04;;;;;;;7.67;5.53;;;;;;;15.75;29.81;94635.09;5031185;28;20969;-62
2022/04/19 10:55:36;;;;;;;8.20;5.20;;;;;;;14.08;31.00;94628.22;5030895;28;20447;-56
2022/04/19 10:58:21;;;;;;;6.53;5.20;;;;;;;14.29;31.77;94624.25;5030474;28;20574;-63
2022/04/19 11:00:57;;;;;;;7.10;5.77;;;;;;;15.24;30.81;94630.72;5030633;28;20460;-60
2022/04/19 11:03:46;;;;;;;9.87;6.30;;;;;;;14.45;31.71;94628.25;5031207;28;20486;-59
2022/04/19 11:06:33;;;;;;;6.47;3.40;;;;;;;13.97;28.15;94634.69;5030614;28;20463;-61
2022/04/19 11:09:22;;;;;;;3.63;2.90;;;;;;;14.58;27.22;94622.25;5030956;28;20531;-65
2022/04/19 11:11:51;;;;;;;4.67;3.20;;;;;;;14.71;27.70;94620.75;5030813;28;20542;-57
2022/04/19 11:14:40;;;;;;;3.57;3.03;;;;;;;14.69;26.04;94613.13;5031460;28;20479;-59
2022/04/19 11:17:25;;;;;;;3.47;3.00;;;;;;;16.30;25.64;94612.84;5030698;28;20474;-64
2022/04/19 11:20:14;;;;;;;5.20;3.20;;;;;;;14.80;26.12;94619.81;5029944;28;20440;-57
2022/04/19 11:22:52;;;;;;;8.20;3.50;;;;;;;16.63;26.93;94606.31;5031101;28;20444;-61
2022/04/19 11:25:45;;;;;;;5.07;2.97;;;;;;;15.33;25.34;94608.94;5030407;28;20546;-60
2022/04/19 11:28:12;;;;;;;5.07;2.50;;;;;;;15.86;23.47;94615.31;5030650;28;20471;-59
2022/04/19 11:31:03;;;;;;;3.67;2.90;;;;;;;14.96;26.30;94615.88;5030211;28;20459;-58
2022/04/19 11:33:33;;;;;;;6.70;3.17;;;;;;;15.76;24.90;94610.25;5030331;28;20454;-59
2022/04/19 11:36:02;;;;;;;5.07;3.50;;;;;;;14.56;26.63;94613.09;5029877;28;20447;-55
2022/04/19 11:38:31;;;;;;;4.10;3.00;;;;;;;14.60;26.57;94614.84;5030184;28;20554;-61
2022/04/19 11:46:46;;;;;;;5.83;2.93;;;;;;;16.76;24.33;94602.03;5029566;28;20482;-64
2022/04/19 11:49:16;;;;;;;3.00;2.67;;;;;;;17.30;23.16;94598.34;5030049;28;20554;-57
2022/04/19 11:51:49;;;;;;;5.27;2.67;;;;;;;17.55;23.92;94589.75;5029529;28;20498;-60
2022/04/19 11:54:20;;;;;;;4.47;2.80;;;;;;;17.60;22.81;94589.63;5030141;28;20463;-58
2022/04/19 11:56:55;;;;;;;3.67;2.90;;;;;;;15.92;23.35;94614.16;5029767;28;20448;-59
2022/04/19 11:59:29;;;;;;;4.80;2.47;;;;;;;14.10;23.83;94611.03;5028076;28;20483;-59
2022/04/19 12:01:59;;;;;;;2.67;2.47;;;;;;;15.08;23.83;94605.66;5029939;28;20511;-64
2022/04/19 12:04:27;;;;;;;3.90;2.40;;;;;;;14.59;24.51;94613.31;5029963;28;20527;-61
2022/04/19 12:07:01;;;;;;;3.33;2.60;;;;;;;14.07;25.98;94611.63;5030142;28;20481;-62
2022/04/19 12:09:30;;;;;;;8.30;3.63;;;;;;;13.12;28.26;94618.72;5028974;28;20980;-55
2022/04/19 12:12:03;;;;;;;4.83;3.27;;;;;;;13.17;29.59;94634.47;5030069;28;20455;-56
2022/04/19 12:14:31;;;;;;;4.40;2.73;;;;;;;12.65;29.94;94625.66;5029289;28;20444;-57
2022/04/19 12:17:08;;;;;;;4.60;2.50;;;;;;;12.76;29.81;94632.41;5029337;28;20480;-58
2022/04/19 12:19:35;;;;;;;4.80;3.10;;;;;;;13.39;29.31;94620.84;5028767;28;20575;-57
2022/04/19 12:22:20;;;;;;;5.77;2.97;;;;;;;13.83;28.87;94618.00;5030082;28;20452;-60
2022/04/19 12:24:59;;;;;;;3.27;2.73;;;;;;;13.55;28.41;94613.56;5028990;28;20460;-50